sensor_id;sensor_type;location;lat;lon;timestamp;pressure;altitude;pressure_sealevel;temperature
68027;BMP180;54819;48.030;14.710;2023-03-14T00:01:16;95750.20;;;8.00
68027;BMP180;54819;48.030;14.710;2023-03-14T00:03:44;95744.80;;;7.98
68027;BMP180;54819;48.030;14.710;2023-03-14T00:06:13;95747.80;;;7.90
68027;BMP180;54819;48.030;14.710;2023-03-14T00:08:43;95744.00;;;7.90
68027;BMP180;54819;48.030;14.710;2023-03-14T00:11:18;95743.40;;;7.90
68027;BMP180;54819;48.030;14.710;2023-03-14T00:13:52;95744.20;;;7.80
68027;BMP180;54819;48.030;14.710;2023-03-14T00:16:19;95753.40;;;7.80
68027;BMP180;54819;48.030;14.710;2023-03-14T00:18:48;95756.40;;;7.80
68027;BMP180;54819;48.030;14.710;2023-03-14T00:21:15;95763.80;;;7.74
68027;BMP180;54819;48.030;14.710;2023-03-14T00:23:42;95761.00;;;7.70
68027;BMP180;54819;48.030;14.710;2023-03-14T00:26:16;95763.00;;;7.70
68027;BMP180;54819;48.030;14.710;2023-03-14T00:28:43;95766.80;;;7.70
68027;BMP180;54819;48.030;14.710;2023-03-14T00:31:14;95767.60;;;7.60
68027;BMP180;54819;48.030;14.710;2023-03-14T00:33:43;95769.40;;;7.60
68027;BMP180;54819;48.030;14.710;2023-03-14T00:36:17;95781.00;;;7.50
68027;BMP180;54819;48.030;14.710;2023-03-14T00:38:47;95791.80;;;7.50
68027;BMP180;54819;48.030;14.710;2023-03-14T00:41:19;95787.20;;;7.40
68027;BMP180;54819;48.030;14.710;2023-03-14T00:43:46;95799.80;;;7.40
68027;BMP180;54819;48.030;14.710;2023-03-14T00:46:12;95801.40;;;7.40
68027;BMP180;54819;48.030;14.710;2023-03-14T00:48:40;95798.00;;;7.32
68027;BMP180;54819;48.030;14.710;2023-03-14T00:51:08;95805.20;;;7.30
68027;BMP180;54819;48.030;14.710;2023-03-14T00:53:38;95809.80;;;7.30
68027;BMP180;54819;48.030;14.710;2023-03-14T00:56:09;95822.00;;;7.28
68027;BMP180;54819;48.030;14.710;2023-03-14T00:58:36;95826.60;;;7.20
68027;BMP180;54819;48.030;14.710;2023-03-14T01:01:17;95827.20;;;7.20
68027;BMP180;54819;48.030;14.710;2023-03-14T01:03:46;95828.60;;;7.20
68027;BMP180;54819;48.030;14.710;2023-03-14T01:06:19;95829.20;;;7.14
68027;BMP180;54819;48.030;14.710;2023-03-14T01:08:47;95903.60;;;7.10
68027;BMP180;54819;48.030;14.710;2023-03-14T01:11:19;95959.80;;;7.08
68027;BMP180;54819;48.030;14.710;2023-03-14T01:13:46;95978.00;;;7.00
68027;BMP180;54819;48.030;14.710;2023-03-14T01:16:14;95950.00;;;7.10
68027;BMP180;54819;48.030;14.710;2023-03-14T01:18:44;95989.40;;;7.10
68027;BMP180;54819;48.030;14.710;2023-03-14T01:21:30;95974.80;;;7.20
68027;BMP180;54819;48.030;14.710;2023-03-14T01:24:00;95953.60;;;7.30
68027;BMP180;54819;48.030;14.710;2023-03-14T01:26:31;95942.00;;;7.40
68027;BMP180;54819;48.030;14.710;2023-03-14T01:28:59;95944.20;;;7.40
68027;BMP180;54819;48.030;14.710;2023-03-14T01:31:27;95946.40;;;7.50
68027;BMP180;54819;48.030;14.710;2023-03-14T01:33:55;95956.60;;;7.58
68027;BMP180;54819;48.030;14.710;2023-03-14T01:36:22;95935.80;;;7.60
68027;BMP180;54819;48.030;14.710;2023-03-14T01:38:48;95921.40;;;7.70
68027;BMP180;54819;48.030;14.710;2023-03-14T01:41:21;95925.40;;;7.74
68027;BMP180;54819;48.030;14.710;2023-03-14T01:43:50;95936.00;;;7.80
68027;BMP180;54819;48.030;14.710;2023-03-14T01:46:26;95918.00;;;7.86
68027;BMP180;54819;48.030;14.710;2023-03-14T01:49:03;95932.00;;;7.90
68027;BMP180;54819;48.030;14.710;2023-03-14T01:52:22;95955.80;;;7.90
68027;BMP180;54819;48.030;14.710;2023-03-14T01:55:07;95958.60;;;8.00
68027;BMP180;54819;48.030;14.710;2023-03-14T01:57:40;95953.40;;;8.06
68027;BMP180;54819;48.030;14.710;2023-03-14T02:00:16;95953.60;;;8.14
68027;BMP180;54819;48.030;14.710;2023-03-14T02:02:47;95941.40;;;8.32
68027;BMP180;54819;48.030;14.710;2023-03-14T02:05:21;95930.60;;;8.60
68027;BMP180;54819;48.030;14.710;2023-03-14T02:08:02;95924.20;;;8.90
68027;BMP180;54819;48.030;14.710;2023-03-14T02:10:43;95920.40;;;9.10
68027;BMP180;54819;48.030;14.710;2023-03-14T02:13:13;95909.40;;;9.30
68027;BMP180;54819;48.030;14.710;2023-03-14T02:16:10;95907.20;;;9.50
68027;BMP180;54819;48.030;14.710;2023-03-14T02:18:48;95903.80;;;9.70
68027;BMP180;54819;48.030;14.710;2023-03-14T02:21:42;95905.00;;;9.82
68027;BMP180;54819;48.030;14.710;2023-03-14T02:27:16;95910.60;;;10.10
68027;BMP180;54819;48.030;14.710;2023-03-14T02:29:52;95923.20;;;10.20
68027;BMP180;54819;48.030;14.710;2023-03-14T02:32:21;95925.00;;;10.20
68027;BMP180;54819;48.030;14.710;2023-03-14T02:34:57;95923.20;;;10.28
68027;BMP180;54819;48.030;14.710;2023-03-14T02:37:50;95929.20;;;10.30
68027;BMP180;54819;48.030;14.710;2023-03-14T02:40:19;95931.80;;;10.30
68027;BMP180;54819;48.030;14.710;2023-03-14T02:42:49;95937.60;;;10.30
68027;BMP180;54819;48.030;14.710;2023-03-14T02:47:55;95942.20;;;10.32
68027;BMP180;54819;48.030;14.710;2023-03-14T02:50:29;95947.40;;;10.36
68027;BMP180;54819;48.030;14.710;2023-03-14T02:52:57;95951.60;;;10.40
68027;BMP180;54819;48.030;14.710;2023-03-14T02:55:25;95951.20;;;10.40
68027;BMP180;54819;48.030;14.710;2023-03-14T02:57:55;95955.40;;;10.40
68027;BMP180;54819;48.030;14.710;2023-03-14T03:00:21;95962.80;;;10.44
68027;BMP180;54819;48.030;14.710;2023-03-14T03:02:48;95974.40;;;10.50
68027;BMP180;54819;48.030;14.710;2023-03-14T03:05:15;95982.20;;;10.50
68027;BMP180;54819;48.030;14.710;2023-03-14T03:07:42;95978.00;;;10.52
68027;BMP180;54819;48.030;14.710;2023-03-14T03:10:10;95975.20;;;10.60
68027;BMP180;54819;48.030;14.710;2023-03-14T03:12:37;95973.80;;;10.60
68027;BMP180;54819;48.030;14.710;2023-03-14T03:15:04;95980.20;;;10.64
68027;BMP180;54819;48.030;14.710;2023-03-14T03:17:33;95966.20;;;10.70
68027;BMP180;54819;48.030;14.710;2023-03-14T03:20:00;95959.60;;;10.70
68027;BMP180;54819;48.030;14.710;2023-03-14T03:22:27;95960.60;;;10.80
68027;BMP180;54819;48.030;14.710;2023-03-14T03:24:53;95954.60;;;10.80
68027;BMP180;54819;48.030;14.710;2023-03-14T03:27:20;95938.40;;;10.80
68027;BMP180;54819;48.030;14.710;2023-03-14T03:29:46;95937.00;;;10.86
68027;BMP180;54819;48.030;14.710;2023-03-14T03:32:14;95937.20;;;10.90
68027;BMP180;54819;48.030;14.710;2023-03-14T03:34:40;95947.00;;;10.90
68027;BMP180;54819;48.030;14.710;2023-03-14T03:37:07;95947.00;;;10.88
68027;BMP180;54819;48.030;14.710;2023-03-14T03:39:36;95948.40;;;10.82
68027;BMP180;54819;48.030;14.710;2023-03-14T03:42:03;95948.00;;;10.80
68027;BMP180;54819;48.030;14.710;2023-03-14T03:44:30;95959.60;;;10.82
68027;BMP180;54819;48.030;14.710;2023-03-14T03:46:56;95974.60;;;10.80
68027;BMP180;54819;48.030;14.710;2023-03-14T03:49:23;95980.00;;;10.80
68027;BMP180;54819;48.030;14.710;2023-03-14T03:51:50;95984.40;;;10.80
68027;BMP180;54819;48.030;14.710;2023-03-14T03:54:17;95997.20;;;10.80
68027;BMP180;54819;48.030;14.710;2023-03-14T03:56:43;96003.00;;;10.80
68027;BMP180;54819;48.030;14.710;2023-03-14T03:59:10;96011.00;;;10.80
68027;BMP180;54819;48.030;14.710;2023-03-14T04:01:37;96014.40;;;10.84
68027;BMP180;54819;48.030;14.710;2023-03-14T04:04:04;96000.00;;;10.90
68027;BMP180;54819;48.030;14.710;2023-03-14T04:06:31;95984.00;;;10.90
68027;BMP180;54819;48.030;14.710;2023-03-14T04:08:59;95971.80;;;11.00
68027;BMP180;54819;48.030;14.710;2023-03-14T04:11:40;95967.20;;;11.02
68027;BMP180;54819;48.030;14.710;2023-03-14T04:14:18;95976.40;;;11.10
68027;BMP180;54819;48.030;14.710;2023-03-14T04:16:46;95974.80;;;11.20
68027;BMP180;54819;48.030;14.710;2023-03-14T04:19:15;95963.40;;;11.28
68027;BMP180;54819;48.030;14.710;2023-03-14T04:21:41;95967.00;;;11.34
68027;BMP180;54819;48.030;14.710;2023-03-14T04:24:12;95971.80;;;11.44
68027;BMP180;54819;48.030;14.710;2023-03-14T04:26:42;95978.40;;;11.58
68027;BMP180;54819;48.030;14.710;2023-03-14T04:29:10;95980.00;;;11.70
68027;BMP180;54819;48.030;14.710;2023-03-14T04:31:39;95984.80;;;11.74
68027;BMP180;54819;48.030;14.710;2023-03-14T04:34:06;95992.20;;;11.80
68027;BMP180;54819;48.030;14.710;2023-03-14T04:36:38;95993.00;;;11.90
68027;BMP180;54819;48.030;14.710;2023-03-14T04:39:09;95986.80;;;11.96
68027;BMP180;54819;48.030;14.710;2023-03-14T04:41:38;95984.00;;;12.00
68027;BMP180;54819;48.030;14.710;2023-03-14T04:44:06;95990.60;;;12.00
68027;BMP180;54819;48.030;14.710;2023-03-14T04:46:34;95980.00;;;12.10
68027;BMP180;54819;48.030;14.710;2023-03-14T04:49:03;95987.00;;;12.10
68027;BMP180;54819;48.030;14.710;2023-03-14T04:51:30;95987.20;;;12.10
68027;BMP180;54819;48.030;14.710;2023-03-14T04:53:56;95988.80;;;12.16
68027;BMP180;54819;48.030;14.710;2023-03-14T04:56:23;95987.20;;;12.20
68027;BMP180;54819;48.030;14.710;2023-03-14T04:58:51;95986.80;;;12.20
68027;BMP180;54819;48.030;14.710;2023-03-14T05:01:18;95991.20;;;12.30
68027;BMP180;54819;48.030;14.710;2023-03-14T05:04:03;95993.40;;;12.40
68027;BMP180;54819;48.030;14.710;2023-03-14T05:06:45;96019.00;;;12.40
68027;BMP180;54819;48.030;14.710;2023-03-14T05:09:32;96025.60;;;12.50
68027;BMP180;54819;48.030;14.710;2023-03-14T05:12:20;96036.60;;;12.58
68027;BMP180;54819;48.030;14.710;2023-03-14T05:14:56;96034.40;;;12.60
68027;BMP180;54819;48.030;14.710;2023-03-14T05:17:49;96032.00;;;12.70
68027;BMP180;54819;48.030;14.710;2023-03-14T05:20:36;96030.20;;;12.70
68027;BMP180;54819;48.030;14.710;2023-03-14T05:23:24;96038.60;;;12.70
68027;BMP180;54819;48.030;14.710;2023-03-14T05:26:14;96049.60;;;12.70
68027;BMP180;54819;48.030;14.710;2023-03-14T05:28:52;96054.00;;;12.70
68027;BMP180;54819;48.030;14.710;2023-03-14T05:31:28;96051.00;;;12.70
68027;BMP180;54819;48.030;14.710;2023-03-14T05:34:18;96052.40;;;12.60
68027;BMP180;54819;48.030;14.710;2023-03-14T05:37:03;96056.60;;;12.60
68027;BMP180;54819;48.030;14.710;2023-03-14T05:39:50;96060.20;;;12.52
68027;BMP180;54819;48.030;14.710;2023-03-14T05:42:39;96069.40;;;12.50
68027;BMP180;54819;48.030;14.710;2023-03-14T05:45:38;96064.20;;;12.50
68027;BMP180;54819;48.030;14.710;2023-03-14T05:48:25;96060.20;;;12.40
68027;BMP180;54819;48.030;14.710;2023-03-14T05:51:06;96067.20;;;12.40
68027;BMP180;54819;48.030;14.710;2023-03-14T05:53:45;96077.40;;;12.30
68027;BMP180;54819;48.030;14.710;2023-03-14T05:56:32;96077.00;;;12.20
68027;BMP180;54819;48.030;14.710;2023-03-14T05:59:10;96077.00;;;12.20
68027;BMP180;54819;48.030;14.710;2023-03-14T06:02:15;96073.40;;;12.20
68027;BMP180;54819;48.030;14.710;2023-03-14T06:04:48;96074.40;;;12.10
68027;BMP180;54819;48.030;14.710;2023-03-14T06:07:15;96078.20;;;12.10
68027;BMP180;54819;48.030;14.710;2023-03-14T06:09:42;96069.00;;;12.08
68027;BMP180;54819;48.030;14.710;2023-03-14T06:12:09;96076.40;;;12.00
68027;BMP180;54819;48.030;14.710;2023-03-14T06:14:39;96075.20;;;12.00
68027;BMP180;54819;48.030;14.710;2023-03-14T06:17:06;96080.80;;;12.00
68027;BMP180;54819;48.030;14.710;2023-03-14T06:19:38;96081.80;;;11.90
68027;BMP180;54819;48.030;14.710;2023-03-14T06:22:05;96074.40;;;11.90
68027;BMP180;54819;48.030;14.710;2023-03-14T06:24:33;96073.00;;;11.90
68027;BMP180;54819;48.030;14.710;2023-03-14T06:27:00;96066.40;;;11.90
68027;BMP180;54819;48.030;14.710;2023-03-14T06:29:30;96066.60;;;11.80
68027;BMP180;54819;48.030;14.710;2023-03-14T06:31:56;96061.80;;;11.80
68027;BMP180;54819;48.030;14.710;2023-03-14T06:34:24;96052.20;;;11.80
68027;BMP180;54819;48.030;14.710;2023-03-14T06:36:52;96043.60;;;11.72
68027;BMP180;54819;48.030;14.710;2023-03-14T06:39:19;96042.20;;;11.70
68027;BMP180;54819;48.030;14.710;2023-03-14T06:41:48;96029.00;;;11.70
68027;BMP180;54819;48.030;14.710;2023-03-14T06:44:15;96031.60;;;11.70
68027;BMP180;54819;48.030;14.710;2023-03-14T06:46:43;96031.00;;;11.70
68027;BMP180;54819;48.030;14.710;2023-03-14T06:49:10;96029.60;;;11.70
68027;BMP180;54819;48.030;14.710;2023-03-14T06:51:37;96032.60;;;11.68
68027;BMP180;54819;48.030;14.710;2023-03-14T06:54:04;96031.40;;;11.68
68027;BMP180;54819;48.030;14.710;2023-03-14T06:56:31;96030.60;;;11.60
68027;BMP180;54819;48.030;14.710;2023-03-14T06:58:58;96032.00;;;11.60
68027;BMP180;54819;48.030;14.710;2023-03-14T07:01:29;96033.00;;;11.60
68027;BMP180;54819;48.030;14.710;2023-03-14T07:04:03;96032.20;;;11.60
68027;BMP180;54819;48.030;14.710;2023-03-14T07:06:30;96021.60;;;11.60
68027;BMP180;54819;48.030;14.710;2023-03-14T07:08:57;95997.60;;;11.62
68027;BMP180;54819;48.030;14.710;2023-03-14T07:11:25;95995.60;;;11.70
68027;BMP180;54819;48.030;14.710;2023-03-14T07:13:52;95982.00;;;11.70
68027;BMP180;54819;48.030;14.710;2023-03-14T07:16:19;95982.00;;;11.70
68027;BMP180;54819;48.030;14.710;2023-03-14T07:18:47;95980.60;;;11.70
68027;BMP180;54819;48.030;14.710;2023-03-14T07:21:14;95983.80;;;11.70
68027;BMP180;54819;48.030;14.710;2023-03-14T07:23:41;95982.60;;;11.70
68027;BMP180;54819;48.030;14.710;2023-03-14T07:26:08;95968.80;;;11.72
68027;BMP180;54819;48.030;14.710;2023-03-14T07:28:36;95958.80;;;11.80
68027;BMP180;54819;48.030;14.710;2023-03-14T07:31:07;95955.20;;;11.80
68027;BMP180;54819;48.030;14.710;2023-03-14T07:33:34;95951.40;;;11.84
68027;BMP180;54819;48.030;14.710;2023-03-14T07:36:03;95948.40;;;11.90
68027;BMP180;54819;48.030;14.710;2023-03-14T07:38:30;95948.40;;;12.00
68027;BMP180;54819;48.030;14.710;2023-03-14T07:41:23;95947.20;;;12.10
68027;BMP180;54819;48.030;14.710;2023-03-14T07:44:13;95944.60;;;12.20
68027;BMP180;54819;48.030;14.710;2023-03-14T07:46:40;95949.80;;;12.30
68027;BMP180;54819;48.030;14.710;2023-03-14T07:49:07;95954.20;;;12.30
68027;BMP180;54819;48.030;14.710;2023-03-14T07:51:34;95954.40;;;12.30
68027;BMP180;54819;48.030;14.710;2023-03-14T07:54:01;95952.60;;;12.40
68027;BMP180;54819;48.030;14.710;2023-03-14T07:56:27;95960.60;;;12.40
68027;BMP180;54819;48.030;14.710;2023-03-14T07:58:54;95969.80;;;12.44
68027;BMP180;54819;48.030;14.710;2023-03-14T08:01:21;95971.80;;;12.50
68027;BMP180;54819;48.030;14.710;2023-03-14T08:03:48;95981.80;;;12.50
68027;BMP180;54819;48.030;14.710;2023-03-14T08:06:15;95987.00;;;12.56
68027;BMP180;54819;48.030;14.710;2023-03-14T08:08:41;95990.20;;;12.60
68027;BMP180;54819;48.030;14.710;2023-03-14T08:11:08;95997.00;;;12.64
68027;BMP180;54819;48.030;14.710;2023-03-14T08:13:37;96003.60;;;12.70
68027;BMP180;54819;48.030;14.710;2023-03-14T08:16:04;96002.00;;;12.70
68027;BMP180;54819;48.030;14.710;2023-03-14T08:18:31;96009.00;;;12.86
68027;BMP180;54819;48.030;14.710;2023-03-14T08:20:58;96013.80;;;12.90
68027;BMP180;54819;48.030;14.710;2023-03-14T08:23:25;96020.00;;;13.00
68027;BMP180;54819;48.030;14.710;2023-03-14T08:25:52;96027.20;;;12.90
68027;BMP180;54819;48.030;14.710;2023-03-14T08:28:18;96036.20;;;12.90
68027;BMP180;54819;48.030;14.710;2023-03-14T08:30:45;96040.80;;;12.80
68027;BMP180;54819;48.030;14.710;2023-03-14T08:33:13;96045.00;;;12.80
68027;BMP180;54819;48.030;14.710;2023-03-14T08:36:06;96050.40;;;12.88
68027;BMP180;54819;48.030;14.710;2023-03-14T08:38:33;96049.80;;;12.82
68027;BMP180;54819;48.030;14.710;2023-03-14T08:41:02;96050.80;;;12.80
68027;BMP180;54819;48.030;14.710;2023-03-14T08:43:30;96062.80;;;12.70
68027;BMP180;54819;48.030;14.710;2023-03-14T08:46:00;96072.40;;;12.70
68027;BMP180;54819;48.030;14.710;2023-03-14T08:48:28;96077.80;;;12.60
68027;BMP180;54819;48.030;14.710;2023-03-14T08:51:03;96068.60;;;12.54
68027;BMP180;54819;48.030;14.710;2023-03-14T08:53:30;96075.80;;;12.50
68027;BMP180;54819;48.030;14.710;2023-03-14T08:55:57;96076.40;;;12.50
68027;BMP180;54819;48.030;14.710;2023-03-14T08:58:24;96082.20;;;12.50
68027;BMP180;54819;48.030;14.710;2023-03-14T09:00:51;96079.40;;;12.50
68027;BMP180;54819;48.030;14.710;2023-03-14T09:03:17;96093.00;;;12.50
68027;BMP180;54819;48.030;14.710;2023-03-14T09:05:44;96094.40;;;12.40
68027;BMP180;54819;48.030;14.710;2023-03-14T09:08:11;96089.80;;;12.30
68027;BMP180;54819;48.030;14.710;2023-03-14T09:10:38;96088.80;;;12.30
68027;BMP180;54819;48.030;14.710;2023-03-14T09:13:05;96109.80;;;12.30
68027;BMP180;54819;48.030;14.710;2023-03-14T09:15:32;96113.20;;;12.20
68027;BMP180;54819;48.030;14.710;2023-03-14T09:17:59;96123.20;;;12.10
68027;BMP180;54819;48.030;14.710;2023-03-14T09:20:26;96124.00;;;12.02
68027;BMP180;54819;48.030;14.710;2023-03-14T09:22:53;96119.80;;;12.00
68027;BMP180;54819;48.030;14.710;2023-03-14T09:25:20;96117.40;;;11.96
68027;BMP180;54819;48.030;14.710;2023-03-14T09:27:47;96110.80;;;12.06
68027;BMP180;54819;48.030;14.710;2023-03-14T09:30:13;96113.00;;;12.20
68027;BMP180;54819;48.030;14.710;2023-03-14T09:32:40;96127.00;;;12.20
68027;BMP180;54819;48.030;14.710;2023-03-14T09:35:07;96118.40;;;12.04
68027;BMP180;54819;48.030;14.710;2023-03-14T09:37:34;96116.00;;;12.06
68027;BMP180;54819;48.030;14.710;2023-03-14T09:40:01;96123.20;;;12.10
68027;BMP180;54819;48.030;14.710;2023-03-14T09:42:37;96124.80;;;12.10
68027;BMP180;54819;48.030;14.710;2023-03-14T09:45:17;96120.20;;;12.02
68027;BMP180;54819;48.030;14.710;2023-03-14T09:47:49;96111.20;;;12.08
68027;BMP180;54819;48.030;14.710;2023-03-14T09:50:31;96109.00;;;12.10
68027;BMP180;54819;48.030;14.710;2023-03-14T09:53:06;96116.20;;;12.10
68027;BMP180;54819;48.030;14.710;2023-03-14T09:55:33;96114.20;;;12.10
68027;BMP180;54819;48.030;14.710;2023-03-14T09:58:10;96121.40;;;12.10
68027;BMP180;54819;48.030;14.710;2023-03-14T10:00:38;96124.00;;;11.90
68027;BMP180;54819;48.030;14.710;2023-03-14T10:05:40;96132.20;;;11.74
68027;BMP180;54819;48.030;14.710;2023-03-14T10:08:11;96134.00;;;11.70
68027;BMP180;54819;48.030;14.710;2023-03-14T10:10:39;96135.80;;;11.70
68027;BMP180;54819;48.030;14.710;2023-03-14T10:13:23;96133.80;;;11.60
68027;BMP180;54819;48.030;14.710;2023-03-14T10:16:04;96127.60;;;11.60
68027;BMP180;54819;48.030;14.710;2023-03-14T10:18:32;96145.40;;;11.50
68027;BMP180;54819;48.030;14.710;2023-03-14T10:21:26;96136.60;;;11.40
68027;BMP180;54819;48.030;14.710;2023-03-14T10:23:54;96129.00;;;11.30
68027;BMP180;54819;48.030;14.710;2023-03-14T10:26:35;96125.80;;;11.30
68027;BMP180;54819;48.030;14.710;2023-03-14T10:29:10;96123.40;;;11.30
68027;BMP180;54819;48.030;14.710;2023-03-14T10:34:38;96125.80;;;11.30
68027;BMP180;54819;48.030;14.710;2023-03-14T10:37:26;96117.80;;;11.20
68027;BMP180;54819;48.030;14.710;2023-03-14T10:40:02;96113.40;;;11.20
68027;BMP180;54819;48.030;14.710;2023-03-14T10:42:39;96116.20;;;11.20
68027;BMP180;54819;48.030;14.710;2023-03-14T10:50:58;96125.40;;;11.10
68027;BMP180;54819;48.030;14.710;2023-03-14T10:56:07;96120.40;;;11.10
68027;BMP180;54819;48.030;14.710;2023-03-14T10:58:42;96118.40;;;11.08
68027;BMP180;54819;48.030;14.710;2023-03-14T11:01:22;96113.60;;;11.06
68027;BMP180;54819;48.030;14.710;2023-03-14T11:07:34;96111.00;;;11.10
68027;BMP180;54819;48.030;14.710;2023-03-14T11:10:31;96107.80;;;11.18
68027;BMP180;54819;48.030;14.710;2023-03-14T11:13:17;96104.60;;;11.20
68027;BMP180;54819;48.030;14.710;2023-03-14T11:25:20;96096.20;;;11.40
68027;BMP180;54819;48.030;14.710;2023-03-14T11:28:23;96089.20;;;11.42
68027;BMP180;54819;48.030;14.710;2023-03-14T11:30:59;96086.60;;;11.50
68027;BMP180;54819;48.030;14.710;2023-03-14T11:33:47;96085.00;;;11.60
68027;BMP180;54819;48.030;14.710;2023-03-14T11:36:30;96078.00;;;11.74
68027;BMP180;54819;48.030;14.710;2023-03-14T11:38:59;96080.20;;;11.94
68027;BMP180;54819;48.030;14.710;2023-03-14T11:41:33;96083.00;;;11.90
68027;BMP180;54819;48.030;14.710;2023-03-14T11:44:34;96077.20;;;11.96
68027;BMP180;54819;48.030;14.710;2023-03-14T11:47:25;96070.80;;;12.10
68027;BMP180;54819;48.030;14.710;2023-03-14T11:50:23;96063.80;;;12.16
68027;BMP180;54819;48.030;14.710;2023-03-14T11:52:58;96056.00;;;12.28
68027;BMP180;54819;48.030;14.710;2023-03-14T11:55:37;96053.60;;;12.30
68027;BMP180;54819;48.030;14.710;2023-03-14T11:58:24;96052.00;;;12.38
68027;BMP180;54819;48.030;14.710;2023-03-14T12:00:55;96051.00;;;12.44
68027;BMP180;54819;48.030;14.710;2023-03-14T12:06:53;96048.00;;;12.60
68027;BMP180;54819;48.030;14.710;2023-03-14T12:09:25;96051.60;;;12.80
68027;BMP180;54819;48.030;14.710;2023-03-14T12:12:02;96058.20;;;12.80
68027;BMP180;54819;48.030;14.710;2023-03-14T12:14:36;96055.20;;;12.74
68027;BMP180;54819;48.030;14.710;2023-03-14T12:17:20;96051.40;;;12.76
68027;BMP180;54819;48.030;14.710;2023-03-14T12:20:33;96039.80;;;12.86
68027;BMP180;54819;48.030;14.710;2023-03-14T12:23:09;96031.00;;;12.96
68027;BMP180;54819;48.030;14.710;2023-03-14T12:25:37;96036.40;;;13.00
68027;BMP180;54819;48.030;14.710;2023-03-14T12:28:21;96037.40;;;13.04
68027;BMP180;54819;48.030;14.710;2023-03-14T12:30:47;96038.60;;;13.16
68027;BMP180;54819;48.030;14.710;2023-03-14T12:35:51;96038.80;;;13.30
68027;BMP180;54819;48.030;14.710;2023-03-14T12:39:00;96036.80;;;13.30
68027;BMP180;54819;48.030;14.710;2023-03-14T12:41:52;96033.40;;;13.40
68027;BMP180;54819;48.030;14.710;2023-03-14T12:49:53;96029.00;;;13.50
68027;BMP180;54819;48.030;14.710;2023-03-14T12:52:34;96032.80;;;13.50
68027;BMP180;54819;48.030;14.710;2023-03-14T12:55:34;96029.60;;;13.50
68027;BMP180;54819;48.030;14.710;2023-03-14T12:58:38;96028.80;;;13.46
68027;BMP180;54819;48.030;14.710;2023-03-14T13:01:17;96035.60;;;13.40
68027;BMP180;54819;48.030;14.710;2023-03-14T13:03:56;96037.00;;;13.34
68027;BMP180;54819;48.030;14.710;2023-03-14T13:06:54;96036.60;;;13.30
68027;BMP180;54819;48.030;14.710;2023-03-14T13:14:31;96018.40;;;13.16
68027;BMP180;54819;48.030;14.710;2023-03-14T13:17:02;96017.00;;;13.22
68027;BMP180;54819;48.030;14.710;2023-03-14T13:19:59;96004.80;;;13.30
68027;BMP180;54819;48.030;14.710;2023-03-14T13:22:30;95994.60;;;13.30
68027;BMP180;54819;48.030;14.710;2023-03-14T13:25:10;96004.00;;;13.30
68027;BMP180;54819;48.030;14.710;2023-03-14T13:27:38;96000.00;;;13.28
68027;BMP180;54819;48.030;14.710;2023-03-14T13:32:43;95987.60;;;13.12
68027;BMP180;54819;48.030;14.710;2023-03-14T13:35:26;95989.20;;;13.10
68027;BMP180;54819;48.030;14.710;2023-03-14T13:38:01;95992.20;;;13.12
68027;BMP180;54819;48.030;14.710;2023-03-14T13:40:45;95996.20;;;13.20
68027;BMP180;54819;48.030;14.710;2023-03-14T13:43:40;95997.60;;;13.14
68027;BMP180;54819;48.030;14.710;2023-03-14T13:46:20;95997.60;;;13.20
68027;BMP180;54819;48.030;14.710;2023-03-14T13:49:01;95999.20;;;13.20
68027;BMP180;54819;48.030;14.710;2023-03-14T13:51:31;95998.20;;;13.20
68027;BMP180;54819;48.030;14.710;2023-03-14T13:54:01;95992.80;;;13.20
68027;BMP180;54819;48.030;14.710;2023-03-14T13:56:33;95995.60;;;13.16
68027;BMP180;54819;48.030;14.710;2023-03-14T13:59:00;96000.40;;;13.10
68027;BMP180;54819;48.030;14.710;2023-03-14T14:01:38;96005.20;;;13.06
68027;BMP180;54819;48.030;14.710;2023-03-14T14:04:15;95994.20;;;13.06
68027;BMP180;54819;48.030;14.710;2023-03-14T14:06:49;95993.20;;;13.10
68027;BMP180;54819;48.030;14.710;2023-03-14T14:09:24;95984.80;;;13.10
68027;BMP180;54819;48.030;14.710;2023-03-14T14:12:00;95982.60;;;13.10
68027;BMP180;54819;48.030;14.710;2023-03-14T14:15:01;95981.00;;;13.10
68027;BMP180;54819;48.030;14.710;2023-03-14T14:17:57;95977.80;;;13.10
68027;BMP180;54819;48.030;14.710;2023-03-14T14:20:40;95975.40;;;13.10
68027;BMP180;54819;48.030;14.710;2023-03-14T14:23:12;95961.60;;;13.10
68027;BMP180;54819;48.030;14.710;2023-03-14T14:25:43;95947.80;;;13.06
68027;BMP180;54819;48.030;14.710;2023-03-14T14:28:36;95942.00;;;13.00
68027;BMP180;54819;48.030;14.710;2023-03-14T14:33:44;95947.00;;;12.90
68027;BMP180;54819;48.030;14.710;2023-03-14T14:36:39;95947.80;;;12.80
68027;BMP180;54819;48.030;14.710;2023-03-14T14:39:18;95946.00;;;12.80
68027;BMP180;54819;48.030;14.710;2023-03-14T14:41:49;95937.20;;;12.80
68027;BMP180;54819;48.030;14.710;2023-03-14T14:44:28;95935.00;;;12.72
68027;BMP180;54819;48.030;14.710;2023-03-14T14:46:56;95932.00;;;12.70
68027;BMP180;54819;48.030;14.710;2023-03-14T14:49:32;95925.00;;;12.70
68027;BMP180;54819;48.030;14.710;2023-03-14T14:54:54;95918.40;;;12.74
68027;BMP180;54819;48.030;14.710;2023-03-14T14:57:28;95914.80;;;12.80
68027;BMP180;54819;48.030;14.710;2023-03-14T15:00:04;95911.40;;;12.80
68027;BMP180;54819;48.030;14.710;2023-03-14T15:02:49;95909.20;;;12.90
68027;BMP180;54819;48.030;14.710;2023-03-14T15:05:28;95909.80;;;12.90
68027;BMP180;54819;48.030;14.710;2023-03-14T15:07:56;95911.40;;;13.00
68027;BMP180;54819;48.030;14.710;2023-03-14T15:10:25;95907.60;;;13.00
68027;BMP180;54819;48.030;14.710;2023-03-14T15:12:52;95907.20;;;13.00
68027;BMP180;54819;48.030;14.710;2023-03-14T15:15:19;95904.00;;;13.00
68027;BMP180;54819;48.030;14.710;2023-03-14T15:17:46;95906.40;;;13.00
68027;BMP180;54819;48.030;14.710;2023-03-14T15:20:16;95910.40;;;13.00
68027;BMP180;54819;48.030;14.710;2023-03-14T15:22:45;95904.20;;;13.10
68027;BMP180;54819;48.030;14.710;2023-03-14T15:25:12;95904.40;;;13.10
68027;BMP180;54819;48.030;14.710;2023-03-14T15:27:59;95903.20;;;13.20
68027;BMP180;54819;48.030;14.710;2023-03-14T15:30:26;95910.00;;;13.20
68027;BMP180;54819;48.030;14.710;2023-03-14T15:32:52;95903.00;;;13.10